createdAt,value
2019-03-13T00:00:36.622Z,80.46
2019-03-13T00:01:35.558Z,79.22
2019-03-13T00:02:37.662Z,78.91
2019-03-13T00:03:35.561Z,78.50
2019-03-13T00:04:35.529Z,79.02
2019-03-13T00:05:35.641Z,79.63
2019-03-13T00:06:35.514Z,78.81
2019-03-13T00:07:35.606Z,79.36
2019-03-13T00:08:35.501Z,78.64
2019-03-13T00:09:35.492Z,78.33
2019-03-13T00:10:35.582Z,80.81
2019-03-13T00:11:35.456Z,82.26
2019-03-13T00:12:35.513Z,82.36
2019-03-13T00:13:35.445Z,84.12
2019-03-13T00:14:35.414Z,84.12
2019-03-13T00:15:35.404Z,84.33
2019-03-13T00:16:35.485Z,84.84
2019-03-13T00:17:35.385Z,84.95
2019-03-13T00:18:35.466Z,84.27
2019-03-13T00:19:35.366Z,82.57
2019-03-13T00:20:35.346Z,82.09
2019-03-13T00:21:37.378Z,82.19
2019-03-13T00:22:35.326Z,83.75
2019-03-13T00:23:35.409Z,85.40
2019-03-13T00:24:35.309Z,86.13
2019-03-13T00:25:35.309Z,86.33
2019-03-13T00:26:35.280Z,86.96
2019-03-13T00:27:35.339Z,85.61
2019-03-13T00:28:35.289Z,85.92
2019-03-13T00:29:36.290Z,87.68
2019-03-13T00:30:35.253Z,87.88
2019-03-13T00:31:36.331Z,88.82
2019-03-13T00:32:35.211Z,88.51
2019-03-13T00:33:35.292Z,88.40
2019-03-13T00:34:35.203Z,88.09
2019-03-13T00:35:35.283Z,89.13
2019-03-13T00:36:35.184Z,89.44
2019-03-13T00:37:35.215Z,89.79
2019-03-13T00:38:35.177Z,90.47
2019-03-13T00:39:35.244Z,91.09
2019-03-13T00:40:35.134Z,91.14
2019-03-13T00:41:35.126Z,90.99
2019-03-13T00:42:35.105Z,91.14
2019-03-13T00:43:35.156Z,91.24
2019-03-13T00:44:35.079Z,91.66
2019-03-13T00:45:42.937Z,91.86
2019-03-13T00:46:35.060Z,91.76
2019-03-13T00:47:37.138Z,92.07
2019-03-13T00:48:35.049Z,92.38
2019-03-13T00:49:36.048Z,92.28
2019-03-13T00:50:35.021Z,92.28
2019-03-13T00:51:37.005Z,91.66
2019-03-13T00:52:35.030Z,92.28
2019-03-13T00:53:34.991Z,91.97
2019-03-13T00:54:35.063Z,92.38
2019-03-13T00:55:34.951Z,92.59
2019-03-13T00:56:35.002Z,92.28
2019-03-13T00:57:34.932Z,92.84
2019-03-13T00:58:34.983Z,93.10
2019-03-13T00:59:34.924Z,92.80
2019-03-13T01:00:34.974Z,93.52
2019-03-13T01:01:34.894Z,93.21
2019-03-13T01:02:34.906Z,93.83
2019-03-13T01:03:34.864Z,93.62
2019-03-13T01:04:34.885Z,93.10
2019-03-13T01:05:34.845Z,93.31
2019-03-13T01:06:35.898Z,93.41
2019-03-13T01:07:34.827Z,93.56
2019-03-13T01:08:34.837Z,93.52
2019-03-13T01:09:34.827Z,93.87
2019-03-13T01:10:34.858Z,93.73
2019-03-13T01:11:34.789Z,94.14
2019-03-13T01:12:34.789Z,94.14
2019-03-13T01:13:34.770Z,94.29
2019-03-13T01:14:35.800Z,94.18
2019-03-13T01:15:34.741Z,94.08
2019-03-13T01:16:34.763Z,93.87
2019-03-13T01:17:34.720Z,93.46
2019-03-13T01:18:34.801Z,93.56
2019-03-13T01:19:34.712Z,94.29
2019-03-13T01:20:34.732Z,94.18
2019-03-13T01:21:34.672Z,94.08
2019-03-13T01:22:35.698Z,94.29
2019-03-13T01:23:34.654Z,94.29
2019-03-13T01:24:34.654Z,93.77
2019-03-13T01:25:34.634Z,94.49
2019-03-13T01:26:34.645Z,94.39
2019-03-13T01:27:34.595Z,94.70
2019-03-13T01:28:41.436Z,94.29
2019-03-13T01:29:34.607Z,94.74
2019-03-13T01:30:42.495Z,94.49
2019-03-13T01:31:34.560Z,94.64
2019-03-13T01:32:34.647Z,94.64
2019-03-13T01:33:34.528Z,95.26
2019-03-13T01:34:34.631Z,95.47
2019-03-13T01:35:35.581Z,95.47
2019-03-13T01:36:34.498Z,95.47
2019-03-13T01:37:34.589Z,95.37
2019-03-13T01:38:34.479Z,95.26
2019-03-13T01:39:34.570Z,95.37
2019-03-13T01:40:34.453Z,95.47
2019-03-13T01:41:34.461Z,95.47
2019-03-13T01:42:34.435Z,95.47
2019-03-13T01:43:34.491Z,95.26
2019-03-13T01:44:34.423Z,95.89
2019-03-13T01:45:34.438Z,95.72
2019-03-13T01:46:34.385Z,95.78
2019-03-13T01:47:34.466Z,95.12
2019-03-13T01:48:34.365Z,95.78
2019-03-13T01:49:36.394Z,95.26
2019-03-13T01:50:34.345Z,95.78
2019-03-13T01:51:34.335Z,95.84
2019-03-13T01:52:34.335Z,95.64
2019-03-13T01:53:34.376Z,95.53
2019-03-13T01:54:34.318Z,95.53
2019-03-13T01:55:34.307Z,95.12
2019-03-13T01:56:34.289Z,95.53
2019-03-13T01:57:34.347Z,95.57
2019-03-13T01:58:34.249Z,95.47
2019-03-13T01:59:35.361Z,95.26
2019-03-13T02:00:34.240Z,95.37
2019-03-13T02:01:35.251Z,95.57
2019-03-13T02:02:35.310Z,95.32
2019-03-13T02:03:34.213Z,94.70
2019-03-13T02:04:37.567Z,95.43
2019-03-13T02:05:34.182Z,95.64
2019-03-13T02:06:34.263Z,94.08
2019-03-13T02:07:34.162Z,94.08
2019-03-13T02:08:34.192Z,94.49
2019-03-13T02:09:34.153Z,94.14
2019-03-13T02:10:34.126Z,94.45
2019-03-13T02:11:34.104Z,94.04
2019-03-13T02:12:41.027Z,94.35
2019-03-13T02:13:34.085Z,94.24
2019-03-13T02:14:34.145Z,94.14
2019-03-13T02:15:34.066Z,94.45
2019-03-13T02:16:34.136Z,94.66
2019-03-13T02:17:34.036Z,94.56
2019-03-13T02:18:34.033Z,94.66
2019-03-13T02:19:38.487Z,94.35
2019-03-13T02:20:34.011Z,94.56
2019-03-13T02:21:34.078Z,94.76
2019-03-13T02:22:33.988Z,94.56
2019-03-13T02:23:33.969Z,94.76
2019-03-13T02:24:33.979Z,95.28
2019-03-13T02:25:34.052Z,95.39
2019-03-13T02:26:33.941Z,95.70
2019-03-13T02:27:35.010Z,94.87
2019-03-13T02:28:33.921Z,95.80
2019-03-13T02:29:33.921Z,94.14
2019-03-13T02:30:34.914Z,92.65
2019-03-13T02:31:33.884Z,92.76
2019-03-13T02:32:33.922Z,92.85
2019-03-13T02:33:33.871Z,92.13
2019-03-13T02:34:33.863Z,90.64
2019-03-13T02:35:33.834Z,88.36
2019-03-13T02:36:33.899Z,87.95
2019-03-13T02:37:33.827Z,88.26
2019-03-13T02:38:35.886Z,88.88
2019-03-13T02:39:33.856Z,89.50
2019-03-13T02:40:33.798Z,90.23
2019-03-13T02:41:33.847Z,90.12
2019-03-13T02:42:33.769Z,89.40
2019-03-13T02:43:33.780Z,86.19
2019-03-13T02:44:33.758Z,84.53
2019-03-13T02:45:33.822Z,85.26
2019-03-13T02:46:33.729Z,86.71
2019-03-13T02:47:33.749Z,87.60
2019-03-13T02:48:33.701Z,85.36
2019-03-13T02:49:33.733Z,84.60
2019-03-13T02:50:33.690Z,83.71
2019-03-13T02:51:33.721Z,83.71
2019-03-13T02:52:33.662Z,85.88
2019-03-13T02:53:33.652Z,85.78
2019-03-13T02:54:33.653Z,83.81
2019-03-13T02:55:33.633Z,82.05
2019-03-13T02:56:33.613Z,82.26
2019-03-13T02:57:35.684Z,82.53
2019-03-13T02:58:33.596Z,83.67
2019-03-13T02:59:36.975Z,82.36
2019-03-13T03:00:37.419Z,81.74
2019-03-13T03:01:33.546Z,80.50
2019-03-13T03:02:33.567Z,81.43
2019-03-13T03:03:33.526Z,81.33
2019-03-13T03:04:33.547Z,81.02
2019-03-13T03:05:33.497Z,80.50
2019-03-13T03:06:33.487Z,79.26
2019-03-13T03:07:33.479Z,80.71
2019-03-13T03:08:33.579Z,81.33
2019-03-13T03:09:33.469Z,81.47
2019-03-13T03:10:33.513Z,80.74
2019-03-13T03:11:33.479Z,79.81
2019-03-13T03:12:33.418Z,79.71
2019-03-13T03:13:33.511Z,77.64
2019-03-13T03:14:33.412Z,77.22
2019-03-13T03:15:35.492Z,77.64
2019-03-13T03:16:33.410Z,78.88
2019-03-13T03:17:33.438Z,79.81
2019-03-13T03:18:40.002Z,81.40
2019-03-13T03:19:33.373Z,81.30
2019-03-13T03:20:33.388Z,81.71
2019-03-13T03:21:33.323Z,81.23
2019-03-13T03:22:33.315Z,81.34
2019-03-13T03:23:33.385Z,80.40
2019-03-13T03:24:33.318Z,80.85
2019-03-13T03:25:33.324Z,79.82
2019-03-13T03:26:33.295Z,79.61
2019-03-13T03:27:33.267Z,78.89
2019-03-13T03:28:33.256Z,77.44
2019-03-13T03:29:33.356Z,76.46
2019-03-13T03:30:33.241Z,76.26
2019-03-13T03:31:35.310Z,77.40
2019-03-13T03:32:33.209Z,78.12
2019-03-13T03:33:33.203Z,79.37
2019-03-13T03:34:33.290Z,78.02
2019-03-13T03:35:33.171Z,77.23
2019-03-13T03:36:33.189Z,77.23
2019-03-13T03:37:33.151Z,77.02
2019-03-13T03:38:33.144Z,76.61
2019-03-13T03:39:33.236Z,76.09
2019-03-13T03:40:33.174Z,75.78
2019-03-13T03:41:33.111Z,76.19
2019-03-13T03:42:33.109Z,78.89
2019-03-13T03:43:40.384Z,76.50
2019-03-13T03:44:34.076Z,77.33
2019-03-13T03:45:33.133Z,78.51
2019-03-13T03:46:33.035Z,78.20
2019-03-13T03:47:33.124Z,77.47
2019-03-13T03:48:33.014Z,78.41
2019-03-13T03:49:33.001Z,80.16
2019-03-13T03:50:33.007Z,79.96
2019-03-13T03:51:34.017Z,80.47
2019-03-13T03:52:32.966Z,80.47
2019-03-13T03:53:33.039Z,81.24
2019-03-13T03:54:32.999Z,80.41
2019-03-13T03:55:32.949Z,79.90
2019-03-13T03:56:33.039Z,79.58
2019-03-13T03:57:32.919Z,80.10
2019-03-13T03:58:32.970Z,80.73
2019-03-13T03:59:32.889Z,80.41
2019-03-13T04:00:32.950Z,80.10
2019-03-13T04:01:32.869Z,80.47
2019-03-13T04:02:32.943Z,80.73
2019-03-13T04:03:32.875Z,80.83
2019-03-13T04:04:34.933Z,81.18
2019-03-13T04:05:32.844Z,81.90
2019-03-13T04:06:32.922Z,81.70
2019-03-13T04:07:32.803Z,82.42
2019-03-13T04:08:37.590Z,81.59
2019-03-13T04:09:32.794Z,81.66
2019-03-13T04:10:32.795Z,81.66
2019-03-13T04:11:32.765Z,81.66
2019-03-13T04:12:32.824Z,82.39
2019-03-13T04:13:32.755Z,82.59
2019-03-13T04:14:39.510Z,82.59
2019-03-13T04:15:32.740Z,82.70
2019-03-13T04:16:32.796Z,82.70
2019-03-13T04:17:32.699Z,82.73
2019-03-13T04:18:33.756Z,82.84
2019-03-13T04:19:32.679Z,83.22
2019-03-13T04:20:38.039Z,84.36
2019-03-13T04:21:32.651Z,84.19
2019-03-13T04:22:33.729Z,82.49
2019-03-13T04:23:32.625Z,83.84
2019-03-13T04:24:39.506Z,82.90
2019-03-13T04:25:32.609Z,81.66
2019-03-13T04:26:32.601Z,82.24
2019-03-13T04:27:32.583Z,82.70
2019-03-13T04:28:32.612Z,82.90
2019-03-13T04:29:32.554Z,82.90
2019-03-13T04:30:32.585Z,83.17
2019-03-13T04:31:39.472Z,83.32
2019-03-13T04:32:32.523Z,83.94
2019-03-13T04:33:34.596Z,84.46
2019-03-13T04:34:32.494Z,82.70
2019-03-13T04:35:33.544Z,84.77
2019-03-13T04:36:32.480Z,85.19
2019-03-13T04:37:32.465Z,85.12
2019-03-13T04:38:32.502Z,86.16
2019-03-13T04:39:32.435Z,84.39
2019-03-13T04:40:32.526Z,83.04
2019-03-13T04:41:32.426Z,81.66
2019-03-13T04:42:32.409Z,80.45
2019-03-13T04:43:32.429Z,80.45
2019-03-13T04:44:32.376Z,77.61
2019-03-13T04:45:32.458Z,78.34
2019-03-13T04:46:32.368Z,79.48
2019-03-13T04:47:32.348Z,80.10
2019-03-13T04:48:32.349Z,80.93
2019-03-13T04:49:32.429Z,79.30
2019-03-13T04:50:32.320Z,80.45
2019-03-13T04:51:34.370Z,80.35
2019-03-13T04:52:32.301Z,76.29
2019-03-13T04:53:32.291Z,75.54
2019-03-13T04:54:32.382Z,76.16
2019-03-13T04:55:32.263Z,76.16
2019-03-13T04:56:32.356Z,75.12
2019-03-13T04:57:32.233Z,74.71
2019-03-13T04:58:32.234Z,75.23
2019-03-13T04:59:32.231Z,76.37
2019-03-13T05:00:32.286Z,76.54
2019-03-13T05:01:32.216Z,76.26
2019-03-13T05:02:32.225Z,74.50
2019-03-13T05:03:32.185Z,73.43
2019-03-13T05:04:32.169Z,72.80
2019-03-13T05:05:32.232Z,72.36
2019-03-13T05:06:32.156Z,72.08
2019-03-13T05:07:33.187Z,72.39
2019-03-13T05:08:40.522Z,73.11
2019-03-13T05:09:33.087Z,75.92
2019-03-13T05:10:33.188Z,77.82
2019-03-13T05:11:32.119Z,77.61
2019-03-13T05:12:32.100Z,78.99
2019-03-13T05:13:32.050Z,80.45
2019-03-13T05:14:32.830Z,80.76
2019-03-13T05:15:32.100Z,80.59
2019-03-13T05:16:32.032Z,81.63
2019-03-13T05:17:32.042Z,82.67
2019-03-13T05:18:32.002Z,82.60
2019-03-13T05:19:31.981Z,82.39
2019-03-13T05:20:31.974Z,83.64
2019-03-13T05:21:33.062Z,82.74
2019-03-13T05:22:31.974Z,81.81
2019-03-13T05:23:32.964Z,82.12
2019-03-13T05:24:31.924Z,83.58
2019-03-13T05:25:31.984Z,84.51
2019-03-13T05:26:31.915Z,83.99
2019-03-13T05:27:31.915Z,85.03
2019-03-13T05:28:31.876Z,84.96
2019-03-13T05:29:31.956Z,85.13
2019-03-13T05:30:31.856Z,85.38
2019-03-13T05:31:31.926Z,84.96
2019-03-13T05:32:31.847Z,85.90
2019-03-13T05:33:31.918Z,85.80
2019-03-13T05:34:31.828Z,86.52
2019-03-13T05:35:31.812Z,85.69
2019-03-13T05:36:31.808Z,83.40
2019-03-13T05:37:31.799Z,83.30
2019-03-13T05:38:31.779Z,82.68
2019-03-13T05:39:31.840Z,80.98
2019-03-13T05:40:32.831Z,81.84
2019-03-13T05:41:31.760Z,80.56
2019-03-13T05:42:33.781Z,80.56
2019-03-13T05:43:31.722Z,78.13
2019-03-13T05:44:33.822Z,76.16
2019-03-13T05:45:31.704Z,75.19
2019-03-13T05:46:31.703Z,75.92
2019-03-13T05:47:32.702Z,76.23
2019-03-13T05:48:31.663Z,75.60
2019-03-13T05:49:32.731Z,76.02
2019-03-13T05:50:31.816Z,76.23
2019-03-13T05:51:31.685Z,76.33
2019-03-13T05:52:32.647Z,75.50
2019-03-13T05:53:31.595Z,75.81
2019-03-13T05:54:31.656Z,75.81
2019-03-13T05:55:31.577Z,75.09
2019-03-13T05:56:31.588Z,73.49
2019-03-13T05:57:31.558Z,73.49
2019-03-13T05:58:31.633Z,74.08
2019-03-13T05:59:31.529Z,72.84
2019-03-13T06:00:31.558Z,72.42
2019-03-13T06:01:31.513Z,71.70
2019-03-13T06:02:31.499Z,69.90
2019-03-13T06:03:31.560Z,71.14
2019-03-13T06:04:31.470Z,71.66
2019-03-13T06:05:31.504Z,71.45
2019-03-13T06:06:31.470Z,71.87
2019-03-13T06:07:31.466Z,71.35
2019-03-13T06:08:31.432Z,71.66
2019-03-13T06:09:31.464Z,72.18
2019-03-13T06:10:31.405Z,72.18
2019-03-13T06:11:31.404Z,71.66
2019-03-13T06:12:31.394Z,71.14
2019-03-13T06:13:31.445Z,71.77
2019-03-13T06:14:31.386Z,71.22
2019-03-13T06:15:31.385Z,70.18
2019-03-13T06:16:31.345Z,70.90
2019-03-13T06:17:32.395Z,72.36
2019-03-13T06:18:31.326Z,71.22
2019-03-13T06:19:32.381Z,71.22
2019-03-13T06:20:31.307Z,71.53
2019-03-13T06:21:31.387Z,71.39
2019-03-13T06:22:31.298Z,71.59
2019-03-13T06:23:31.240Z,71.18
2019-03-13T06:24:31.259Z,71.49
2019-03-13T06:25:32.351Z,71.59
2019-03-13T06:26:31.240Z,71.08
2019-03-13T06:27:31.341Z,72.22
2019-03-13T06:28:31.260Z,72.63
2019-03-13T06:29:31.915Z,71.49
2019-03-13T06:30:31.202Z,70.87
2019-03-13T06:31:31.181Z,70.21
2019-03-13T06:32:31.262Z,71.04
2019-03-13T06:33:31.202Z,70.94
2019-03-13T06:34:31.133Z,70.84
2019-03-13T06:35:31.433Z,71.91
2019-03-13T06:36:31.093Z,71.46
2019-03-13T06:37:31.225Z,71.04
2019-03-13T06:38:31.094Z,71.15
2019-03-13T06:39:32.120Z,70.73
2019-03-13T06:40:31.065Z,71.88
2019-03-13T06:41:31.146Z,71.46
2019-03-13T06:42:31.055Z,71.25
2019-03-13T06:43:31.077Z,71.67
2019-03-13T06:44:31.037Z,71.04
2019-03-13T06:45:31.117Z,71.46
2019-03-13T06:46:30.998Z,71.56
2019-03-13T06:47:32.018Z,72.71
2019-03-13T06:48:30.969Z,72.60
2019-03-13T06:49:30.987Z,71.77
2019-03-13T06:50:31.059Z,71.88
2019-03-13T06:51:30.933Z,71.77
2019-03-13T06:52:31.821Z,72.39
2019-03-13T06:53:30.911Z,71.77
2019-03-13T06:54:31.117Z,71.01
2019-03-13T06:55:30.936Z,71.33
2019-03-13T06:56:31.156Z,71.88
2019-03-13T06:57:30.929Z,71.67
2019-03-13T06:58:30.916Z,72.19
2019-03-13T06:59:30.864Z,71.33
2019-03-13T07:00:30.951Z,70.50
2019-03-13T07:01:30.834Z,70.36
2019-03-13T07:02:30.927Z,71.39
2019-03-13T07:03:30.814Z,70.91
2019-03-13T07:04:31.836Z,71.43
2019-03-13T07:05:30.796Z,71.22
2019-03-13T07:06:37.496Z,70.91
2019-03-13T07:07:30.789Z,71.43
2019-03-13T07:08:31.805Z,71.73
2019-03-13T07:09:30.749Z,71.33
2019-03-13T07:10:30.738Z,71.33
2019-03-13T07:11:30.719Z,71.53
2019-03-13T07:12:31.830Z,72.36
2019-03-13T07:13:30.701Z,72.46
2019-03-13T07:14:30.690Z,71.22
2019-03-13T07:15:30.681Z,71.84
2019-03-13T07:16:31.752Z,71.63
2019-03-13T07:17:30.671Z,71.43
2019-03-13T07:18:31.681Z,71.73
2019-03-13T07:19:30.632Z,71.53
2019-03-13T07:20:30.626Z,71.12
2019-03-13T07:21:30.603Z,71.01
2019-03-13T07:22:32.165Z,70.67
2019-03-13T07:23:30.584Z,71.29
2019-03-13T07:24:30.682Z,70.67
2019-03-13T07:25:30.565Z,71.81
2019-03-13T07:26:30.594Z,71.91
2019-03-13T07:27:30.555Z,70.36
2019-03-13T07:28:31.568Z,70.98
2019-03-13T07:29:30.580Z,70.77
2019-03-13T07:30:30.577Z,69.09
2019-03-13T07:31:30.497Z,69.71
2019-03-13T07:32:30.570Z,71.12
2019-03-13T07:33:30.468Z,70.74
2019-03-13T07:34:31.785Z,71.26
2019-03-13T07:35:30.448Z,69.92
2019-03-13T07:36:30.439Z,69.60
2019-03-13T07:37:30.499Z,69.29
2019-03-13T07:38:30.429Z,69.60
2019-03-13T07:39:31.519Z,69.29
2019-03-13T07:40:30.402Z,68.02
2019-03-13T07:41:30.390Z,70.09
2019-03-13T07:42:30.393Z,68.85
2019-03-13T07:43:31.398Z,69.47
2019-03-13T07:44:30.352Z,70.40
2019-03-13T07:45:30.412Z,69.88
2019-03-13T07:46:30.436Z,68.85
2019-03-13T07:47:30.384Z,69.98
2019-03-13T07:48:30.313Z,68.74
2019-03-13T07:49:30.376Z,70.09
2019-03-13T07:50:30.284Z,70.71
2019-03-13T07:51:31.325Z,71.57
2019-03-13T07:52:32.692Z,71.36
2019-03-13T07:53:30.387Z,70.61
2019-03-13T07:54:30.246Z,70.29
2019-03-13T07:55:30.276Z,71.47
2019-03-13T07:56:30.201Z,71.98
2019-03-13T07:57:30.217Z,71.98
2019-03-13T07:58:30.177Z,71.36
2019-03-13T07:59:31.298Z,71.26
2019-03-13T08:00:30.169Z,71.12
2019-03-13T08:01:30.172Z,71.98
2019-03-13T08:02:30.181Z,71.64
2019-03-13T08:03:31.247Z,70.71
2019-03-13T08:04:30.110Z,71.22
2019-03-13T08:05:32.208Z,68.85
2019-03-13T08:06:30.112Z,71.09
2019-03-13T08:07:31.111Z,70.57
2019-03-13T08:08:30.202Z,71.50
2019-03-13T08:09:30.062Z,70.88
2019-03-13T08:10:30.083Z,70.81
2019-03-13T08:11:30.043Z,71.19
2019-03-13T08:12:31.053Z,70.29
2019-03-13T08:13:30.033Z,68.71
2019-03-13T08:14:30.064Z,68.61
2019-03-13T08:15:29.996Z,68.48
2019-03-13T08:16:29.996Z,68.99
2019-03-13T08:17:29.977Z,69.09
2019-03-13T08:18:32.027Z,67.34
2019-03-13T08:19:29.946Z,69.09
2019-03-13T08:20:29.957Z,69.51
2019-03-13T08:21:29.937Z,69.30
2019-03-13T08:22:30.934Z,68.68
2019-03-13T08:23:29.928Z,69.40
2019-03-13T08:24:29.920Z,70.16
2019-03-13T08:25:29.889Z,69.30
2019-03-13T08:26:30.920Z,69.82
2019-03-13T08:27:29.900Z,69.82
2019-03-13T08:28:29.971Z,70.72
2019-03-13T08:29:29.867Z,69.09
2019-03-13T08:30:29.888Z,68.99
2019-03-13T08:31:29.925Z,67.61
2019-03-13T08:32:29.812Z,67.82
2019-03-13T08:33:29.912Z,69.06
2019-03-13T08:34:29.794Z,69.68
2019-03-13T08:35:29.904Z,68.75
2019-03-13T08:36:29.774Z,68.62
2019-03-13T08:37:29.834Z,67.17
2019-03-13T08:38:29.754Z,67.17
2019-03-13T08:39:29.764Z,65.98
2019-03-13T08:40:29.723Z,64.71
2019-03-13T08:41:29.806Z,64.51
2019-03-13T08:42:29.698Z,63.35
2019-03-13T08:43:29.777Z,62.63
2019-03-13T08:44:29.668Z,61.09
2019-03-13T08:45:29.778Z,62.12
2019-03-13T08:46:29.652Z,62.58
2019-03-13T08:47:30.729Z,59.95
2019-03-13T08:48:29.729Z,59.83
2019-03-13T08:49:31.702Z,61.76
2019-03-13T08:50:29.600Z,61.88
2019-03-13T08:51:29.595Z,61.61
2019-03-13T08:52:36.488Z,61.09
2019-03-13T08:53:29.583Z,58.67
2019-03-13T08:54:29.584Z,58.44
2019-03-13T08:55:29.542Z,56.79
2019-03-13T08:56:36.442Z,57.56
2019-03-13T08:57:29.522Z,56.07
2019-03-13T08:58:29.594Z,55.05
2019-03-13T08:59:29.505Z,57.03
2019-03-13T09:00:29.595Z,56.36
2019-03-13T09:01:29.484Z,56.56
2019-03-13T09:02:29.447Z,54.74
2019-03-13T09:03:29.537Z,56.15
2019-03-13T09:04:29.446Z,57.00
2019-03-13T09:05:29.527Z,57.75
2019-03-13T09:06:29.416Z,59.68
2019-03-13T09:07:29.417Z,60.50
2019-03-13T09:08:29.417Z,61.21
2019-03-13T09:09:29.509Z,62.03
2019-03-13T09:10:29.390Z,62.10
2019-03-13T09:11:31.389Z,61.90
2019-03-13T09:12:29.362Z,61.28
2019-03-13T09:13:29.371Z,62.41
2019-03-13T09:14:29.488Z,62.00
2019-03-13T09:15:29.333Z,61.15
2019-03-13T09:16:30.401Z,60.45
2019-03-13T09:17:29.312Z,58.93
2019-03-13T09:18:29.313Z,58.73
2019-03-13T09:19:29.395Z,60.22
2019-03-13T09:20:29.265Z,60.50
2019-03-13T09:21:29.314Z,61.69
2019-03-13T09:22:29.257Z,59.01
2019-03-13T09:23:29.255Z,60.99
2019-03-13T09:24:29.229Z,60.58
2019-03-13T09:25:30.438Z,59.99
2019-03-13T09:26:29.206Z,61.25
2019-03-13T09:27:29.228Z,61.21
2019-03-13T09:28:29.187Z,62.37
2019-03-13T09:29:29.300Z,63.27
2019-03-13T09:30:29.251Z,62.54
2019-03-13T09:31:29.148Z,62.37
2019-03-13T09:32:29.201Z,62.60
2019-03-13T09:33:29.133Z,63.43
2019-03-13T09:34:29.110Z,64.36
2019-03-13T09:35:29.099Z,63.22
2019-03-13T09:36:29.141Z,62.34
2019-03-13T09:37:29.088Z,63.59
2019-03-13T09:38:30.160Z,58.87
2019-03-13T09:39:29.053Z,59.77
2019-03-13T09:40:29.113Z,58.91
2019-03-13T09:41:29.034Z,59.01
2019-03-13T09:42:31.093Z,59.86
2019-03-13T09:43:29.016Z,59.99
2019-03-13T09:44:30.105Z,60.68
2019-03-13T09:45:29.055Z,59.99
2019-03-13T09:46:29.945Z,60.30
2019-03-13T09:47:28.986Z,61.05
2019-03-13T09:48:28.969Z,61.18
2019-03-13T09:49:29.028Z,61.21
2019-03-13T09:50:28.928Z,61.93
2019-03-13T09:51:28.958Z,62.99
2019-03-13T09:52:28.909Z,63.09
2019-03-13T09:53:28.939Z,62.34
2019-03-13T09:54:28.879Z,62.52
2019-03-13T09:55:29.959Z,63.03
2019-03-13T09:56:28.860Z,60.43
2019-03-13T09:57:28.988Z,61.15
2019-03-13T09:58:28.955Z,61.66
2019-03-13T09:59:42.412Z,61.66
2019-03-13T10:00:29.824Z,60.09
2019-03-13T10:01:28.807Z,61.25
2019-03-13T10:02:28.793Z,59.91
2019-03-13T10:03:28.884Z,59.25
2019-03-13T10:04:28.795Z,62.88
2019-03-13T10:05:29.844Z,62.57
2019-03-13T10:06:28.745Z,62.08
2019-03-13T10:07:28.757Z,62.40
2019-03-13T10:08:28.724Z,63.43
2019-03-13T10:09:28.863Z,64.43
2019-03-13T10:10:28.721Z,64.22
2019-03-13T10:11:28.728Z,62.57
2019-03-13T10:12:28.692Z,63.32
2019-03-13T10:13:35.518Z,62.37
2019-03-13T10:14:28.689Z,62.75
2019-03-13T10:15:28.799Z,61.33
2019-03-13T10:16:28.649Z,61.72
2019-03-13T10:17:28.680Z,61.59
2019-03-13T10:18:28.621Z,60.35
2019-03-13T10:19:29.631Z,59.42
2019-03-13T10:20:28.591Z,59.94
2019-03-13T10:21:28.603Z,60.66
2019-03-13T10:22:28.583Z,59.74
2019-03-13T10:23:28.546Z,59.14
2019-03-13T10:24:28.646Z,60.69
2019-03-13T10:25:28.524Z,60.15
2019-03-13T10:26:28.562Z,59.74
2019-03-13T10:27:28.505Z,59.63
2019-03-13T10:28:28.603Z,59.01
2019-03-13T10:29:28.509Z,58.50
2019-03-13T10:30:28.517Z,58.81
2019-03-13T10:31:28.467Z,59.25
2019-03-13T10:32:30.497Z,59.66
2019-03-13T10:33:28.438Z,59.77
2019-03-13T10:34:28.529Z,59.77
2019-03-13T10:35:28.433Z,59.97
2019-03-13T10:36:28.419Z,59.42
2019-03-13T10:37:28.399Z,59.97
2019-03-13T10:38:28.461Z,59.56
2019-03-13T10:39:28.411Z,60.38
2019-03-13T10:40:28.391Z,59.63
2019-03-13T10:41:28.351Z,60.56
2019-03-13T10:42:28.438Z,60.77
2019-03-13T10:43:28.333Z,59.74
2019-03-13T10:44:28.334Z,60.56
2019-03-13T10:45:28.323Z,59.74
2019-03-13T10:46:28.404Z,60.66
2019-03-13T10:47:28.285Z,60.87
2019-03-13T10:48:28.336Z,60.56
2019-03-13T10:49:28.269Z,60.35
2019-03-13T10:50:28.276Z,60.07
2019-03-13T10:51:28.325Z,61.80
2019-03-13T10:52:28.247Z,61.28
2019-03-13T10:53:28.277Z,60.15
2019-03-13T10:54:28.231Z,60.66
2019-03-13T10:55:28.218Z,59.91
2019-03-13T10:56:28.199Z,59.94
2019-03-13T10:57:28.259Z,59.74
2019-03-13T10:58:28.177Z,59.94
2019-03-13T10:59:35.051Z,59.86
2019-03-13T11:00:28.171Z,60.59
2019-03-13T11:01:28.141Z,59.77
2019-03-13T11:02:28.134Z,60.46
2019-03-13T11:03:35.001Z,59.84
2019-03-13T11:04:28.113Z,59.42
2019-03-13T11:05:28.143Z,58.81
2019-03-13T11:06:28.084Z,59.42
2019-03-13T11:07:28.843Z,60.66
2019-03-13T11:08:28.224Z,60.33
2019-03-13T11:09:29.098Z,58.98
2019-03-13T11:10:28.056Z,58.26
2019-03-13T11:11:28.100Z,58.81
2019-03-13T11:12:28.005Z,58.89
2019-03-13T11:13:28.036Z,59.58
2019-03-13T11:14:27.988Z,59.06
2019-03-13T11:15:28.022Z,58.96
2019-03-13T11:16:27.970Z,58.96
2019-03-13T11:17:27.958Z,59.58
2019-03-13T11:18:27.942Z,58.65
2019-03-13T11:19:27.950Z,57.73
2019-03-13T11:20:27.940Z,58.75
2019-03-13T11:21:27.980Z,56.70
2019-03-13T11:22:27.900Z,56.90
2019-03-13T11:23:28.942Z,56.80
2019-03-13T11:24:27.871Z,56.57
2019-03-13T11:25:27.892Z,57.39
2019-03-13T11:26:27.852Z,58.83
2019-03-13T11:27:27.893Z,56.23
2019-03-13T11:28:27.853Z,57.98
2019-03-13T11:29:28.455Z,56.13
2019-03-13T11:30:27.935Z,56.67
2019-03-13T11:31:27.794Z,56.67
2019-03-13T11:32:27.827Z,56.08
2019-03-13T11:33:27.785Z,55.95
2019-03-13T11:34:27.866Z,56.77
2019-03-13T11:35:27.757Z,56.26
2019-03-13T11:36:27.932Z,58.01
2019-03-13T11:37:27.729Z,56.77
2019-03-13T11:38:27.741Z,56.29
2019-03-13T11:39:28.828Z,57.08
2019-03-13T11:40:27.709Z,56.59
2019-03-13T11:41:34.489Z,56.77
2019-03-13T11:42:27.673Z,56.05
2019-03-13T11:43:28.711Z,54.92
2019-03-13T11:44:28.562Z,56.54
2019-03-13T11:45:27.652Z,56.02
2019-03-13T11:46:27.693Z,55.62
2019-03-13T11:47:27.631Z,53.77
2019-03-13T11:48:27.735Z,55.08
2019-03-13T11:49:27.595Z,56.41
2019-03-13T11:50:27.614Z,56.82
2019-03-13T11:51:34.485Z,54.66
2019-03-13T11:52:27.575Z,53.85
2019-03-13T11:53:34.531Z,53.72
2019-03-13T11:54:27.548Z,53.61
2019-03-13T11:55:27.579Z,54.95
2019-03-13T11:56:27.539Z,54.53
2019-03-13T11:57:28.558Z,53.02
2019-03-13T11:58:27.508Z,53.77
2019-03-13T11:59:27.569Z,54.66
2019-03-13T12:00:27.471Z,54.07
2019-03-13T12:01:27.480Z,54.49
2019-03-13T12:02:27.470Z,53.43
2019-03-13T12:03:27.452Z,56.82
2019-03-13T12:04:27.511Z,52.92
2019-03-13T12:05:27.431Z,54.36
2019-03-13T12:06:27.432Z,53.81
2019-03-13T12:07:28.443Z,53.43
2019-03-13T12:08:27.392Z,54.56
2019-03-13T12:09:27.453Z,54.43
2019-03-13T12:10:27.374Z,52.71
2019-03-13T12:11:27.424Z,53.05
2019-03-13T12:12:27.347Z,53.56
2019-03-13T12:13:28.346Z,52.92
2019-03-13T12:14:27.316Z,52.81
2019-03-13T12:15:27.357Z,56.00
2019-03-13T12:16:27.306Z,55.38
2019-03-13T12:17:27.287Z,53.10
2019-03-13T12:18:27.278Z,53.12
2019-03-13T12:19:27.338Z,52.92
2019-03-13T12:20:27.268Z,51.89
2019-03-13T12:21:27.310Z,53.53
2019-03-13T12:22:27.211Z,53.02
2019-03-13T12:23:27.220Z,53.74
2019-03-13T12:24:27.271Z,52.53
2019-03-13T12:25:27.193Z,53.66
2019-03-13T12:26:27.242Z,52.94
2019-03-13T12:27:27.194Z,52.92
2019-03-13T12:28:27.163Z,52.43
2019-03-13T12:29:27.144Z,53.43
2019-03-13T12:30:27.177Z,53.53
2019-03-13T12:31:27.135Z,53.85
2019-03-13T12:32:28.135Z,53.85
2019-03-13T12:33:27.105Z,54.02
2019-03-13T12:34:27.146Z,54.33
2019-03-13T12:35:27.078Z,52.79
2019-03-13T12:36:27.128Z,53.94
2019-03-13T12:37:27.057Z,52.20
2019-03-13T12:38:27.117Z,53.33
2019-03-13T12:39:27.038Z,52.53
2019-03-13T12:40:27.084Z,54.30
2019-03-13T12:41:27.029Z,54.82
2019-03-13T12:42:27.090Z,54.41
2019-03-13T12:43:26.989Z,54.90
2019-03-13T12:44:28.050Z,54.79
2019-03-13T12:45:26.985Z,55.10
2019-03-13T12:46:27.001Z,53.87
2019-03-13T12:47:26.952Z,55.10
2019-03-13T12:48:27.002Z,54.66
2019-03-13T12:49:26.922Z,53.12
2019-03-13T12:50:27.001Z,53.94
2019-03-13T12:51:26.925Z,52.92
2019-03-13T12:52:26.975Z,52.94